Time;durP1;ratioP1;P1;durP2;ratioP2;P2;SDS_P1;SDS_P2;PMS_P1;PMS_P2;Temp;Humidity;BMP_temperature;BMP_pressure;BME280_temperature;BME280_humidity;BME280_pressure;Samples;Min_cycle;Max_cycle;Signal;HPM_P1;HPM_P2
2022/07/15 00:02:13;;;;;;;2.00;1.83;;;;;;;21.56;69.92;100977.44;4938156;28;102293;-66
2022/07/15 00:04:41;;;;;;;1.95;1.75;;;;;;;21.57;69.59;100976.31;4938345;28;103880;-66
2022/07/15 00:07:08;;;;;;;2.40;2.20;;;;;;;21.56;69.76;100971.91;4956758;28;102006;-66
2022/07/15 00:12:22;;;;;;;2.30;2.10;;;;;;;21.56;69.67;100966.34;4937890;28;102075;-67
2022/07/15 00:14:49;;;;;;;2.88;1.88;;;;;;;21.57;69.53;100968.00;4946745;28;104791;-67
2022/07/15 00:17:16;;;;;;;4.18;1.75;;;;;;;21.56;69.68;100969.94;4956085;28;102408;-67
2022/07/15 00:19:44;;;;;;;2.45;2.00;;;;;;;21.55;69.72;100965.53;4955859;28;101910;-65
2022/07/15 00:22:11;;;;;;;2.13;1.83;;;;;;;21.55;69.58;100971.09;4957092;28;102097;-66
2022/07/15 00:24:39;;;;;;;1.95;1.65;;;;;;;21.56;69.71;100972.69;4954936;28;103839;-67
2022/07/15 00:27:06;;;;;;;3.42;1.80;;;;;;;21.55;69.79;100965.53;4956192;28;101928;-65
2022/07/15 00:29:32;;;;;;;2.08;1.88;;;;;;;21.55;69.50;100959.19;4956457;28;101901;-66
2022/07/15 00:31:59;;;;;;;2.17;2.00;;;;;;;21.54;69.54;100961.16;4957270;28;102409;-66
2022/07/15 00:34:26;;;;;;;2.53;2.03;;;;;;;21.55;69.43;100962.78;4955057;28;104025;-66
2022/07/15 00:36:54;;;;;;;2.10;1.88;;;;;;;21.55;69.71;100962.78;4950063;28;102196;-66
2022/07/15 00:39:21;;;;;;;2.80;1.97;;;;;;;21.55;69.49;100959.19;4936230;28;102188;-66
2022/07/15 00:41:48;;;;;;;2.30;2.00;;;;;;;21.54;69.51;100958.41;4939829;28;102553;-66
2022/07/15 00:44:14;;;;;;;4.40;2.10;;;;;;;21.54;69.56;100961.16;4948854;28;104142;-66
2022/07/15 00:46:41;;;;;;;2.50;1.95;;;;;;;21.55;69.37;100953.66;4959796;28;101906;-66
2022/07/15 00:49:09;;;;;;;3.10;2.00;;;;;;;21.55;69.14;100953.66;4959538;28;102336;-66
2022/07/15 00:51:39;;;;;;;2.17;1.98;;;;;;;21.55;69.19;100948.13;4959773;28;102518;-67
2022/07/15 00:54:08;;;;;;;3.75;2.15;;;;;;;21.54;69.30;100952.88;4958227;28;103978;-66
2022/07/15 00:56:37;;;;;;;3.22;2.30;;;;;;;21.54;69.24;100952.88;4940069;28;102015;-65
2022/07/15 00:59:06;;;;;;;2.63;2.10;;;;;;;21.54;69.32;100946.50;4939763;28;102148;-65
2022/07/15 01:01:33;;;;;;;2.13;1.88;;;;;;;21.55;69.63;100948.13;4948907;28;102171;-66
2022/07/15 01:04:02;;;;;;;2.55;1.80;;;;;;;21.54;69.31;100952.88;4958686;28;104037;-66
2022/07/15 01:06:29;;;;;;;3.80;2.00;;;;;;;21.54;69.37;100952.06;4959629;28;102294;-66
2022/07/15 01:08:56;;;;;;;3.42;2.00;;;;;;;21.54;69.15;100952.06;4959151;28;102402;-66
2022/07/15 01:11:24;;;;;;;2.92;2.08;;;;;;;21.54;68.96;100952.06;4959534;28;102396;-66
2022/07/15 01:13:51;;;;;;;3.55;2.20;;;;;;;21.53;68.92;100945.72;4950306;28;103948;-66
2022/07/15 01:16:19;;;;;;;2.88;2.67;;;;;;;21.53;68.95;100953.19;4940201;28;102303;-67
2022/07/15 01:18:45;;;;;;;3.60;2.10;;;;;;;21.54;68.75;100952.06;4938978;28;102292;-65
2022/07/15 01:21:15;;;;;;;4.27;2.43;;;;;;;21.54;68.87;100954.81;4945470;28;102197;-66
2022/07/15 01:23:42;;;;;;;2.70;2.03;;;;;;;21.53;68.66;100948.47;4952216;28;104176;-65
2022/07/15 01:26:10;;;;;;;2.00;1.80;;;;;;;21.55;68.75;100945.34;4952563;28;102220;-67
2022/07/15 01:28:37;;;;;;;2.97;2.08;;;;;;;21.54;68.69;100946.50;4939611;28;102632;-66
2022/07/15 01:31:04;;;;;;;2.58;2.17;;;;;;;21.54;68.67;100946.50;4943739;28;102216;-66
2022/07/15 01:33:31;;;;;;;2.55;2.28;;;;;;;21.53;68.62;100944.88;4956937;28;103895;-65
2022/07/15 01:36:00;;;;;;;2.78;2.45;;;;;;;21.53;68.72;100939.34;4959433;28;102393;-65
2022/07/15 01:38:28;;;;;;;3.83;2.10;;;;;;;21.53;68.58;100936.56;4958478;28;102358;-66
2022/07/15 01:40:56;;;;;;;2.95;2.20;;;;;;;21.53;68.69;100939.34;4958726;28;103471;-66
2022/07/15 01:43:23;;;;;;;3.22;2.10;;;;;;;21.54;68.67;100943.75;4939955;28;103899;-66
2022/07/15 01:45:49;;;;;;;3.65;2.25;;;;;;;21.53;68.44;100940.19;4946090;28;102324;-67
2022/07/15 01:51:01;;;;;;;2.75;2.10;;;;;;;21.53;68.52;100940.19;4958629;28;102252;-66
2022/07/15 01:53:29;;;;;;;2.35;2.10;;;;;;;21.53;68.61;100939.34;4951745;28;103849;-66
2022/07/15 01:55:56;;;;;;;2.37;2.10;;;;;;;21.53;68.75;100933.81;4939073;28;102203;-67
2022/07/15 01:58:23;;;;;;;6.78;2.17;;;;;;;21.52;68.73;100937.72;4944039;28;102382;-66
2022/07/15 02:00:50;;;;;;;2.17;1.98;;;;;;;21.52;68.69;100934.97;4958788;28;102140;-66
2022/07/15 02:03:16;;;;;;;4.20;2.50;;;;;;;21.53;68.50;100939.34;4957215;28;103936;-66
2022/07/15 02:05:43;;;;;;;3.08;2.20;;;;;;;21.51;68.51;100936.91;4958796;28;101860;-67
2022/07/15 02:08:10;;;;;;;3.05;2.28;;;;;;;21.52;68.58;100944.06;4957962;28;102262;-67
2022/07/15 02:10:40;;;;;;;2.20;2.00;;;;;;;21.53;68.56;100939.34;4955379;28;102186;-67
2022/07/15 02:13:07;;;;;;;4.53;2.40;;;;;;;21.53;68.90;100933.81;4957212;28;104447;-66
2022/07/15 02:15:34;;;;;;;3.92;2.25;;;;;;;21.52;68.62;100935.75;4958674;28;102216;-66
2022/07/15 02:18:01;;;;;;;2.53;2.30;;;;;;;21.52;68.48;100933.00;4957419;28;102211;-65
2022/07/15 02:20:28;;;;;;;3.38;2.80;;;;;;;21.52;68.64;100937.72;4959166;28;102306;-66
2022/07/15 02:22:57;;;;;;;4.18;2.47;;;;;;;21.52;68.53;100943.25;4952991;28;104111;-65
2022/07/15 02:25:26;;;;;;;3.67;3.17;;;;;;;21.52;68.63;100943.25;4938685;28;102149;-65
2022/07/15 02:27:58;;;;;;;4.25;2.58;;;;;;;21.52;68.58;100944.06;4938489;28;102221;-64
2022/07/15 02:30:25;;;;;;;3.58;2.50;;;;;;;21.51;68.64;100936.13;4939142;28;102147;-67
2022/07/15 02:32:51;;;;;;;4.03;2.40;;;;;;;21.52;68.36;100934.97;4956814;28;103964;-65
2022/07/15 02:35:18;;;;;;;4.35;2.33;;;;;;;21.51;68.36;100941.66;4958580;28;101863;-65
2022/07/15 02:37:46;;;;;;;5.15;2.50;;;;;;;21.51;68.24;100933.34;4956981;28;102177;-66
2022/07/15 02:40:12;;;;;;;2.70;2.50;;;;;;;21.51;68.39;100933.34;4959165;28;102218;-65
2022/07/15 02:42:39;;;;;;;3.20;2.60;;;;;;;21.51;68.48;100936.13;4956600;28;104051;-67
2022/07/15 02:45:08;;;;;;;6.03;2.35;;;;;;;21.51;68.50;100939.69;4958341;28;102356;-67
2022/07/15 02:47:35;;;;;;;2.80;2.50;;;;;;;21.51;68.38;100936.13;4957821;28;101899;-66
2022/07/15 02:50:01;;;;;;;3.95;2.30;;;;;;;21.51;68.40;100930.56;4953113;28;102880;-66
2022/07/15 02:52:29;;;;;;;3.05;2.50;;;;;;;21.51;68.28;100934.16;4955973;28;104193;-66
2022/07/15 02:54:55;;;;;;;3.40;1.92;;;;;;;21.50;68.37;100940.03;4941252;28;102351;-65
2022/07/15 02:57:22;;;;;;;3.78;2.83;;;;;;;21.51;68.32;100936.13;4948740;28;102301;-66
2022/07/15 02:59:49;;;;;;;2.70;2.33;;;;;;;21.51;68.08;100941.66;4947341;28;102451;-66
2022/07/15 03:02:17;;;;;;;4.78;2.20;;;;;;;21.51;68.53;100938.88;4956182;28;103951;-65
2022/07/15 03:04:44;;;;;;;2.40;2.20;;;;;;;21.51;68.78;100933.34;4951340;28;102026;-67
2022/07/15 03:07:10;;;;;;;3.15;2.25;;;;;;;21.51;68.81;100936.91;4957303;28;102384;-66
2022/07/15 03:09:37;;;;;;;2.40;2.20;;;;;;;21.51;68.88;100930.56;4957945;28;102322;-65
2022/07/15 03:12:04;;;;;;;4.28;2.00;;;;;;;21.50;69.21;100940.03;4956736;28;103965;-66
2022/07/15 03:14:31;;;;;;;2.47;1.90;;;;;;;21.50;69.35;100940.03;4955414;28;102457;-65
2022/07/15 03:16:58;;;;;;;2.40;2.05;;;;;;;21.50;69.51;100942.81;4937105;28;102160;-66
2022/07/15 03:19:29;;;;;;;2.13;1.90;;;;;;;21.50;69.49;100940.03;4944318;28;102150;-66
2022/07/15 03:21:55;;;;;;;2.00;1.75;;;;;;;21.50;69.65;100937.28;4956637;28;104048;-64
2022/07/15 03:24:22;;;;;;;3.15;1.70;;;;;;;21.51;69.65;100939.69;4945574;28;101784;-65
2022/07/15 03:26:48;;;;;;;2.67;2.30;;;;;;;21.52;69.69;100937.72;4955260;28;102434;-67
2022/07/15 03:29:16;;;;;;;3.15;1.70;;;;;;;21.52;69.70;100935.75;4944577;28;102128;-67
2022/07/15 03:31:45;;;;;;;2.75;2.03;;;;;;;21.51;69.86;100936.13;4956420;28;104115;-65
2022/07/15 03:34:12;;;;;;;2.20;2.00;;;;;;;21.52;69.84;100930.22;4956888;28;102034;-65
2022/07/15 03:36:40;;;;;;;5.18;2.50;;;;;;;21.52;70.06;100932.19;4955395;28;102097;-66
2022/07/15 03:39:08;;;;;;;3.17;2.10;;;;;;;21.54;69.95;100929.91;4940322;28;102288;-67
2022/07/15 03:41:34;;;;;;;2.33;2.03;;;;;;;21.54;69.91;100938.22;4941470;28;104124;-67
2022/07/15 03:44:02;;;;;;;2.30;2.10;;;;;;;21.54;69.96;100935.44;4947392;28;102885;-66
2022/07/15 03:46:29;;;;;;;2.25;2.05;;;;;;;21.55;69.87;100939.81;4942531;28;102541;-67
2022/07/15 03:48:56;;;;;;;3.20;2.20;;;;;;;21.55;70.03;100925.97;4941286;28;102599;-67
2022/07/15 03:51:24;;;;;;;4.45;2.13;;;;;;;21.55;69.91;100934.28;4955184;28;104092;-68
2022/07/15 03:53:52;;;;;;;2.27;2.07;;;;;;;21.56;70.02;100936.69;4956935;28;102446;-66
2022/07/15 03:56:20;;;;;;;2.22;2.00;;;;;;;21.56;69.90;100939.47;4956851;28;102301;-66
2022/07/15 03:58:47;;;;;;;4.00;2.38;;;;;;;21.57;69.94;100937.53;4954626;28;102443;-66
2022/07/15 04:01:14;;;;;;;2.50;2.30;;;;;;;21.56;69.95;100939.47;4937047;28;104082;-66
2022/07/15 04:03:40;;;;;;;2.60;2.22;;;;;;;21.57;69.97;100941.09;4937586;28;101983;-66
2022/07/15 04:06:07;;;;;;;2.83;2.35;;;;;;;21.58;69.89;100941.91;4941119;28;102324;-66
2022/07/15 04:08:33;;;;;;;4.20;2.25;;;;;;;21.58;69.91;100936.38;4957235;28;102157;-65
2022/07/15 04:11:05;;;;;;;2.75;2.08;;;;;;;21.59;69.84;100936.03;4949013;28;104018;-66
2022/07/15 04:13:31;;;;;;;2.50;2.30;;;;;;;21.60;69.98;100939.59;4940223;28;102314;-66
2022/07/15 04:15:58;;;;;;;2.50;2.15;;;;;;;21.60;69.88;100934.06;4938319;28;102200;-67
2022/07/15 04:18:25;;;;;;;3.45;2.15;;;;;;;21.61;69.92;100932.94;4951622;28;103080;-64
2022/07/15 04:20:52;;;;;;;3.45;1.95;;;;;;;21.62;69.90;100925.44;4959503;28;104250;-67
2022/07/15 04:23:18;;;;;;;2.33;2.00;;;;;;;21.62;70.16;100925.44;4960162;28;102054;-66
2022/07/15 04:25:45;;;;;;;4.47;2.60;;;;;;;21.63;69.89;100922.31;4959187;28;102271;-65
2022/07/15 04:28:13;;;;;;;2.65;2.45;;;;;;;21.64;69.89;100914.81;4958913;28;102738;-66
2022/07/15 04:30:39;;;;;;;2.45;1.98;;;;;;;21.64;69.71;100915.63;4958695;28;103862;-66
2022/07/15 04:33:06;;;;;;;3.00;2.60;;;;;;;21.65;69.93;100914.47;4959511;28;102262;-67
2022/07/15 04:35:33;;;;;;;3.78;2.60;;;;;;;21.65;69.71;100908.94;4949043;28;101948;-66
2022/07/15 04:38:00;;;;;;;2.75;2.25;;;;;;;21.67;69.99;100916.88;4943771;28;102318;-66
2022/07/15 04:40:26;;;;;;;3.28;2.22;;;;;;;21.66;69.96;100916.09;4958712;28;104078;-66
2022/07/15 04:42:53;;;;;;;4.38;2.08;;;;;;;21.68;69.72;100913.00;4959945;28;102567;-66
2022/07/15 04:45:21;;;;;;;3.88;2.42;;;;;;;21.67;69.91;100914.94;4959501;28;102464;-66
2022/07/15 04:47:47;;;;;;;4.93;2.40;;;;;;;21.67;69.90;100920.47;4960208;28;102563;-66
2022/07/15 04:52:59;;;;;;;4.07;2.05;;;;;;;21.69;69.91;100923.72;4959383;28;102128;-65
2022/07/15 04:55:26;;;;;;;2.30;2.10;;;;;;;21.69;69.70;100926.50;4942715;28;102316;-65
2022/07/15 04:57:53;;;;;;;3.95;2.20;;;;;;;21.70;69.85;100921.75;4947163;28;102251;-65
2022/07/15 05:00:21;;;;;;;2.88;2.17;;;;;;;21.72;69.94;100925.00;4956508;28;103857;-66
2022/07/15 05:02:48;;;;;;;3.47;2.17;;;;;;;21.72;70.03;100927.78;4959293;28;102086;-66
2022/07/15 05:05:15;;;;;;;4.22;2.65;;;;;;;21.73;69.85;100926.63;4958690;28;102026;-66
2022/07/15 05:07:41;;;;;;;2.70;2.35;;;;;;;21.74;70.23;100923.50;4960567;28;102653;-66
2022/07/15 05:10:10;;;;;;;3.17;2.30;;;;;;;21.76;69.87;100931.47;4948089;28;104018;-66
2022/07/15 05:12:37;;;;;;;2.50;2.28;;;;;;;21.78;69.81;100930.00;4950527;28;102607;-66
2022/07/15 05:15:06;;;;;;;4.05;2.30;;;;;;;21.77;69.87;100928.34;4953377;28;103500;-67
2022/07/15 05:17:34;;;;;;;2.58;2.30;;;;;;;21.80;69.71;100933.22;4959424;28;102275;-66
2022/07/15 05:20:01;;;;;;;2.55;2.20;;;;;;;21.82;69.77;100930.91;4958668;28;104093;-67
2022/07/15 05:22:28;;;;;;;3.40;2.10;;;;;;;21.86;69.82;100930.25;4959310;28;102294;-66
2022/07/15 05:24:54;;;;;;;3.17;2.30;;;;;;;21.88;69.78;100927.91;4954877;28;102126;-66
2022/07/15 05:27:21;;;;;;;2.33;2.13;;;;;;;21.92;69.69;100926.06;4959378;28;102409;-66
2022/07/15 05:29:47;;;;;;;3.08;2.00;;;;;;;21.95;69.42;100928.16;4948801;28;103725;-65
2022/07/15 05:32:14;;;;;;;3.05;2.20;;;;;;;21.97;69.48;100923.09;4958676;28;102201;-65
2022/07/15 05:34:42;;;;;;;2.50;2.30;;;;;;;21.98;69.42;100924.72;4958134;28;102611;-66
2022/07/15 05:37:09;;;;;;;4.70;2.37;;;;;;;21.98;69.51;100922.75;4959722;28;102179;-66
2022/07/15 05:39:35;;;;;;;2.75;2.38;;;;;;;22.01;69.70;100924.03;4958290;28;103983;-66
2022/07/15 05:42:02;;;;;;;2.60;2.25;;;;;;;22.01;69.65;100926.81;4955146;28;102132;-66
2022/07/15 05:44:29;;;;;;;2.47;2.20;;;;;;;22.03;69.41;100925.31;4944118;28;102269;-66
2022/07/15 05:46:55;;;;;;;2.92;2.13;;;;;;;22.07;69.25;100930.97;4951324;28;102543;-66
2022/07/15 05:49:24;;;;;;;3.40;2.38;;;;;;;22.08;69.02;100922.31;4953465;28;104145;-66
2022/07/15 05:51:52;;;;;;;2.92;2.42;;;;;;;22.11;69.30;100920.81;4944090;28;104469;-66
2022/07/15 05:54:18;;;;;;;3.77;2.50;;;;;;;22.13;69.19;100917.69;4952436;28;102450;-66
2022/07/15 05:56:45;;;;;;;4.30;2.67;;;;;;;22.13;69.17;100918.50;4959236;28;102449;-66
2022/07/15 05:59:11;;;;;;;2.60;2.35;;;;;;;22.15;69.02;100916.22;4941906;28;103942;-66
2022/07/15 06:01:38;;;;;;;2.50;2.30;;;;;;;22.17;68.89;100915.88;4957390;28;102510;-68
2022/07/15 06:04:05;;;;;;;3.25;2.33;;;;;;;22.17;68.86;100913.91;4951184;28;102319;-66
2022/07/15 06:06:31;;;;;;;2.33;2.13;;;;;;;22.22;68.37;100913.69;4958583;28;101899;-66
2022/07/15 06:08:59;;;;;;;4.80;2.45;;;;;;;22.23;68.21;100900.63;4957829;28;103777;-66
2022/07/15 06:11:26;;;;;;;2.67;2.45;;;;;;;22.23;68.83;100917.28;4958131;28;102472;-66
2022/07/15 06:13:53;;;;;;;2.83;2.15;;;;;;;22.25;67.89;100921.31;4953822;28;102242;-66
2022/07/15 06:16:19;;;;;;;3.22;2.03;;;;;;;22.29;67.97;100916.69;4943467;28;102249;-67
2022/07/15 06:18:46;;;;;;;3.05;2.00;;;;;;;22.31;68.21;100916.34;4957273;28;103954;-65
2022/07/15 06:21:13;;;;;;;3.80;2.53;;;;;;;22.30;68.37;100912.78;4957709;28;102087;-66
2022/07/15 06:23:39;;;;;;;4.15;2.22;;;;;;;22.34;67.65;100912.06;4957536;28;102009;-66
2022/07/15 06:26:07;;;;;;;4.10;2.35;;;;;;;22.33;68.14;100910.47;4958487;28;102595;-66
2022/07/15 06:28:34;;;;;;;;;;;;;;;22.32;68.32;100915.19;4955924;28;104157;-66
2022/07/15 06:31:01;;;;;;;3.50;2.47;;;;;;;22.36;67.50;100909.75;4955866;28;102161;-66
2022/07/15 06:33:28;;;;;;;4.43;2.50;;;;;;;22.39;67.05;100914.59;4946523;28;102460;-65
2022/07/15 06:35:54;;;;;;;2.45;2.25;;;;;;;22.41;67.23;100912.31;4939485;28;102784;-66
2022/07/15 06:38:21;;;;;;;3.05;2.28;;;;;;;22.41;67.31;100913.13;4936816;28;104418;-66
2022/07/15 06:40:48;;;;;;;3.00;2.60;;;;;;;22.39;67.60;100909.88;4937666;28;102216;-66
2022/07/15 06:43:15;;;;;;;2.92;2.63;;;;;;;22.37;68.17;100906.66;4937639;28;102235;-67
2022/07/15 06:45:42;;;;;;;2.87;2.63;;;;;;;22.39;68.05;100903.50;4946765;28;103108;-66
2022/07/15 06:48:08;;;;;;;2.78;2.50;;;;;;;22.40;67.65;100905.16;4956847;28;103891;-65
2022/07/15 06:50:35;;;;;;;3.35;2.58;;;;;;;22.42;67.36;100906.41;4957869;28;102381;-66
2022/07/15 06:53:02;;;;;;;5.38;2.65;;;;;;;22.45;66.95;100902.94;4955471;28;102093;-66
2022/07/15 06:55:28;;;;;;;2.58;2.22;;;;;;;22.46;66.82;100901.78;4957310;28;102390;-66
2022/07/15 06:57:55;;;;;;;2.70;2.50;;;;;;;22.43;67.74;100898.88;4955747;28;103917;-67
2022/07/15 07:00:23;;;;;;;3.47;2.33;;;;;;;22.41;68.37;100902.03;4942851;28;102944;-67
2022/07/15 07:02:50;;;;;;;2.53;1.92;;;;;;;22.43;67.25;100896.13;4940201;28;102150;-66
2022/07/15 07:05:17;;;;;;;3.53;2.72;;;;;;;22.43;68.03;100893.34;4952241;28;102443;-67
2022/07/15 07:07:43;;;;;;;4.20;2.30;;;;;;;22.44;67.61;100892.22;4939483;28;104042;-66
2022/07/15 07:10:10;;;;;;;3.88;2.30;;;;;;;22.45;67.35;100897.41;4942214;28;102015;-66
2022/07/15 07:12:37;;;;;;;2.35;2.00;;;;;;;22.49;66.69;100891.97;4945208;28;102204;-66
2022/07/15 07:15:06;;;;;;;2.55;2.35;;;;;;;22.50;66.63;100896.34;4955249;28;102451;-66
2022/07/15 07:17:35;;;;;;;3.53;1.98;;;;;;;22.51;66.36;100903.53;4953979;28;104097;-65
2022/07/15 07:20:01;;;;;;;2.63;2.40;;;;;;;22.51;66.18;100895.22;4954039;28;103396;-66
2022/07/15 07:22:28;;;;;;;3.10;2.15;;;;;;;22.51;66.85;100903.53;4956691;28;102207;-66
2022/07/15 07:24:55;;;;;;;3.15;2.25;;;;;;;22.53;66.16;100892.88;4951625;28;102573;-65
2022/07/15 07:27:23;;;;;;;2.72;2.10;;;;;;;22.52;66.45;100892.06;4952066;28;104166;-66
2022/07/15 07:29:49;;;;;;;3.85;2.55;;;;;;;22.55;66.17;100896.13;4946992;28;102025;-65
2022/07/15 07:32:16;;;;;;;2.35;2.10;;;;;;;22.58;65.76;100895.44;4956173;28;102478;-66
2022/07/15 07:34:44;;;;;;;5.75;2.50;;;;;;;22.61;65.74;100900.28;4956554;28;102175;-66
2022/07/15 07:37:11;;;;;;;3.00;2.13;;;;;;;22.58;65.92;100900.97;4955547;28;103659;-66
2022/07/15 07:39:37;;;;;;;3.40;2.45;;;;;;;22.54;66.43;100895.31;4956665;28;102341;-64
2022/07/15 07:42:04;;;;;;;3.03;2.30;;;;;;;22.58;65.53;100884.34;4940310;28;102359;-66
2022/07/15 07:44:30;;;;;;;5.18;2.30;;;;;;;22.59;65.54;100885.94;4943329;28;102225;-66
2022/07/15 07:46:57;;;;;;;3.28;2.33;;;;;;;22.63;65.24;100889.63;4948252;28;103904;-65
2022/07/15 07:49:23;;;;;;;3.47;2.20;;;;;;;22.68;64.84;100889.38;4955774;28;102200;-66
2022/07/15 07:51:52;;;;;;;2.42;2.22;;;;;;;22.70;64.46;100892.63;4948189;28;102302;-66
2022/07/15 07:54:18;;;;;;;3.22;1.90;;;;;;;22.71;64.38;100888.69;4961334;28;102350;-66
2022/07/15 07:56:45;;;;;;;2.40;2.20;;;;;;;22.74;64.08;100881.66;4959742;28;104126;-66
2022/07/15 07:59:11;;;;;;;2.90;2.30;;;;;;;22.73;64.17;100891.94;4960594;28;102204;-67
2022/07/15 08:01:38;;;;;;;3.10;2.30;;;;;;;22.69;64.40;100879.94;4958682;28;102733;-65
2022/07/15 08:04:05;;;;;;;4.95;2.35;;;;;;;22.69;64.49;100887.44;4960663;28;102225;-67
2022/07/15 08:06:33;;;;;;;2.97;2.25;;;;;;;22.71;64.22;100882.34;4959472;28;103763;-67
2022/07/15 08:09:02;;;;;;;2.40;2.20;;;;;;;22.69;64.17;100891.03;4960342;28;102349;-66
2022/07/15 08:11:29;;;;;;;2.20;2.00;;;;;;;22.69;64.17;100884.66;4954338;28;102371;-66
2022/07/15 08:13:57;;;;;;;2.72;2.53;;;;;;;22.67;64.37;100885.00;4956558;28;103629;-66
2022/07/15 08:16:24;;;;;;;3.25;2.63;;;;;;;22.67;64.49;100896.09;4958359;28;104102;-66
2022/07/15 08:18:53;;;;;;;2.15;1.95;;;;;;;22.71;63.61;100883.16;4958646;28;102229;-66
2022/07/15 08:21:19;;;;;;;2.75;2.40;;;;;;;22.75;63.23;100878.50;4950890;28;102014;-68
2022/07/15 08:23:46;;;;;;;2.33;2.13;;;;;;;22.73;63.59;100875.28;4959317;28;102184;-66
2022/07/15 08:26:18;;;;;;;3.05;2.35;;;;;;;22.71;63.74;100883.16;4939909;28;103923;-65
2022/07/15 08:28:45;;;;;;;2.40;2.20;;;;;;;22.74;63.35;100884.41;4944191;28;102138;-66
2022/07/15 08:31:12;;;;;;;4.25;2.35;;;;;;;22.78;62.87;100888.09;4955150;28;102524;-66
2022/07/15 08:33:39;;;;;;;5.28;2.30;;;;;;;22.79;62.81;100882.22;4958428;28;102203;-65
2022/07/15 08:36:05;;;;;;;2.97;2.40;;;;;;;22.77;62.97;100880.94;4955372;28;104128;-66
2022/07/15 08:38:32;;;;;;;4.65;2.80;;;;;;;22.70;63.56;100873.22;4959377;28;102219;-65
2022/07/15 08:40:59;;;;;;;3.75;2.03;;;;;;;22.70;63.74;100876.00;4958949;28;102406;-66
2022/07/15 08:43:26;;;;;;;3.00;2.20;;;;;;;22.74;62.89;100876.91;4957128;28;102625;-66
2022/07/15 08:45:53;;;;;;;2.50;2.30;;;;;;;22.76;62.70;100863.50;4957207;28;103848;-65
2022/07/15 08:48:26;;;;;;;3.25;2.45;;;;;;;22.76;62.66;100871.81;4958447;28;102073;-65
2022/07/15 08:50:54;;;;;;;4.57;2.15;;;;;;;22.75;62.81;100861.88;4958556;28;102150;-66
2022/07/15 08:53:21;;;;;;;6.00;2.40;;;;;;;22.75;62.58;100872.97;4948634;28;102586;-65
2022/07/15 08:55:48;;;;;;;2.47;2.15;;;;;;;22.75;62.26;100864.63;4949504;28;104064;-66
2022/07/15 08:58:14;;;;;;;4.68;2.42;;;;;;;22.77;62.13;100859.56;4952698;28;102359;-67
2022/07/15 09:00:42;;;;;;;2.58;2.38;;;;;;;22.76;62.24;100863.50;4953463;28;102443;-66
2022/07/15 09:03:09;;;;;;;3.10;2.30;;;;;;;22.77;61.72;100859.56;4957480;28;102413;-66
2022/07/15 09:05:37;;;;;;;4.63;2.58;;;;;;;22.77;62.06;100859.56;4939335;28;104085;-66
2022/07/15 09:08:10;;;;;;;2.80;2.40;;;;;;;22.74;63.24;100849.16;4959862;28;105096;-65
2022/07/15 09:10:46;;;;;;;3.58;2.38;;;;;;;22.71;61.96;100849.84;4946288;28;102072;-66
2022/07/15 09:13:30;;;;;;;3.10;2.30;;;;;;;22.73;62.13;100858.66;4953111;28;102062;-66
2022/07/15 09:16:00;;;;;;;2.30;2.10;;;;;;;22.75;61.97;100855.50;4958155;28;103866;-66
2022/07/15 09:18:29;;;;;;;2.35;2.15;;;;;;;22.75;61.88;100856.31;4954564;28;102495;-66
2022/07/15 09:20:56;;;;;;;;;;;;;;;22.74;61.90;100848.34;4957541;28;102833;-66
2022/07/15 09:23:31;;;;;;;5.60;2.78;;;;;;;22.73;61.77;100855.88;4943919;28;102480;-66
2022/07/15 09:26:00;;;;;;;2.50;2.30;;;;;;;22.72;62.39;100850.66;4950436;28;108044;-65
2022/07/15 09:28:40;;;;;;;3.90;2.00;;;;;;;22.71;61.94;100852.63;4941859;28;102370;-67
2022/07/15 09:33:59;;;;;;;2.40;2.20;;;;;;;22.76;61.50;100840.50;4960087;28;102160;-66
2022/07/15 09:36:28;;;;;;;2.70;2.00;;;;;;;22.76;61.45;100841.31;4957012;28;103811;-66
2022/07/15 09:38:56;;;;;;;;;;;;;;;22.77;61.30;100845.69;4959461;28;102199;-66
2022/07/15 09:41:29;;;;;;;3.13;2.13;;;;;;;22.77;61.37;100836.56;4956754;28;102138;-67
2022/07/15 09:44:00;;;;;;;3.53;2.45;;;;;;;22.77;61.18;100836.56;4959376;28;101951;-67
2022/07/15 09:46:43;;;;;;;3.10;2.47;;;;;;;22.73;61.70;100835.66;4944418;28;104137;-66
2022/07/15 09:49:10;;;;;;;4.22;2.33;;;;;;;22.72;61.48;100831.25;4950355;28;102169;-66
2022/07/15 09:51:43;;;;;;;;;;;;;;;22.73;61.60;100830.91;4954183;28;102869;-65
2022/07/15 09:54:12;;;;;;;;;;;;;;;22.75;61.37;100836.09;4955820;28;102309;-66
2022/07/15 09:56:38;;;;;;;4.10;2.30;;;;;;;22.77;61.04;100837.38;4951603;28;103882;-66
2022/07/15 09:59:06;;;;;;;2.67;2.47;;;;;;;22.76;61.29;100837.72;4944938;28;102133;-67
2022/07/15 10:01:34;;;;;;;;;;;;;;;22.74;61.54;100826.97;4950742;28;102166;-64
2022/07/15 10:04:01;;;;;;;3.13;2.17;;;;;;;22.74;61.24;100832.50;4944241;28;102189;-66
2022/07/15 10:06:28;;;;;;;2.55;2.35;;;;;;;22.75;61.30;100836.88;4938180;28;104197;-65
2022/07/15 10:08:56;;;;;;;3.35;2.60;;;;;;;22.72;61.52;100820.97;4942674;28;102054;-66
2022/07/15 10:11:23;;;;;;;4.82;2.65;;;;;;;22.69;61.67;100824.44;4949781;28;102682;-66
2022/07/15 10:14:12;;;;;;;4.80;2.53;;;;;;;22.65;62.16;100822.72;4947962;28;102323;-66
2022/07/15 10:17:19;;;;;;;3.08;2.10;;;;;;;22.66;63.21;100825.16;4957002;28;107727;-65
2022/07/15 10:20:33;;;;;;;4.30;2.45;;;;;;;22.68;61.66;100822.00;4954771;28;101851;-66
2022/07/15 10:23:12;;;;;;;3.63;2.35;;;;;;;22.69;62.64;100816.13;4923391;28;102075;-66
2022/07/15 10:25:53;;;;;;;;;;;;;;;22.65;65.09;100811.63;4951565;28;102718;-66
2022/07/15 10:28:20;;;;;;;;;;;;;;;22.61;66.02;100805.16;4955559;28;104327;-67
2022/07/15 10:31:06;;;;;;;;;;;;;;;22.62;64.50;100807.59;4939120;28;102189;-66
2022/07/15 10:33:33;;;;;;;3.00;2.70;;;;;;;22.60;64.72;100804.34;4944442;28;102425;-65
2022/07/15 10:36:05;;;;;;;3.72;2.72;;;;;;;22.55;66.54;100805.41;4953445;28;102304;-66
2022/07/15 10:38:36;;;;;;;4.82;2.83;;;;;;;22.59;64.42;100797.19;4944209;28;104191;-68
2022/07/15 10:41:09;;;;;;;2.55;2.33;;;;;;;22.59;63.85;100799.97;4952122;28;102183;-66
2022/07/15 10:43:48;;;;;;;2.97;2.22;;;;;;;22.52;66.62;100803.31;4940422;28;103298;-66
2022/07/15 10:46:23;;;;;;;2.70;2.50;;;;;;;22.53;66.60;100799.38;4939901;28;102293;-66
2022/07/15 10:48:52;;;;;;;4.05;2.83;;;;;;;22.54;65.32;100797.44;4941718;28;103779;-66
2022/07/15 10:51:44;;;;;;;3.35;2.40;;;;;;;22.53;66.68;100798.59;4945013;28;102534;-66
2022/07/15 10:54:40;;;;;;;3.30;2.80;;;;;;;22.52;66.80;100796.97;4937035;28;102680;-66
2022/07/15 10:57:07;;;;;;;3.20;2.30;;;;;;;22.51;66.42;100792.59;4946627;28;102467;-66
2022/07/15 10:59:37;;;;;;;2.80;2.40;;;;;;;22.52;67.18;100777.56;4945464;28;103835;-67
2022/07/15 11:02:12;;;;;;;4.07;2.50;;;;;;;22.51;66.97;100790.63;4937354;28;102447;-66
2022/07/15 11:04:40;;;;;;;2.78;2.58;;;;;;;22.52;66.17;100780.34;4939438;28;102065;-66
2022/07/15 11:07:30;;;;;;;2.75;2.55;;;;;;;22.51;66.59;100776.75;4946702;28;102256;-66
2022/07/15 11:10:14;;;;;;;2.95;2.40;;;;;;;22.50;67.20;100780.69;4948839;28;109193;-65
2022/07/15 11:12:59;;;;;;;2.75;2.55;;;;;;;22.50;65.96;100777.09;4942038;28;102388;-66
2022/07/15 11:15:27;;;;;;;4.63;2.30;;;;;;;22.48;66.96;100768.34;4946648;28;102481;-67
2022/07/15 11:17:56;;;;;;;2.63;2.42;;;;;;;22.50;66.89;100774.31;4955026;28;102196;-66
2022/07/15 11:20:25;;;;;;;3.75;2.40;;;;;;;22.53;66.57;100759.75;4938704;28;103996;-66
2022/07/15 11:22:55;;;;;;;2.50;2.30;;;;;;;22.54;65.78;100759.44;4950501;28;102337;-66
2022/07/15 11:25:25;;;;;;;3.38;2.53;;;;;;;22.52;66.75;100764.50;4939933;28;102095;-66
2022/07/15 11:28:00;;;;;;;2.60;2.40;;;;;;;22.50;67.14;100768.78;4938770;28;101992;-66
2022/07/15 11:30:29;;;;;;;2.60;2.40;;;;;;;22.52;66.20;100770.03;4936733;28;103973;-66
2022/07/15 11:32:57;;;;;;;4.90;2.33;;;;;;;22.54;65.84;100766.94;4944384;28;102021;-67
2022/07/15 11:35:27;;;;;;;2.45;2.25;;;;;;;22.56;65.62;100759.06;4955757;28;102157;-68
2022/07/15 11:37:58;;;;;;;;;;;;;;;22.54;65.04;100755.84;4957788;28;102195;-66